sensor_id;sensor_type;location;lat;lon;timestamp;pressure;altitude;pressure_sealevel;temperature;humidity
8627;BME280;4351;51.422;6.794;2023-07-20T00:08:43;101216.56;;;18.33;100.00
8627;BME280;4351;51.422;6.794;2023-07-20T00:11:11;101222.50;;;18.38;100.00
8627;BME280;4351;51.422;6.794;2023-07-20T00:13:41;101218.03;;;18.37;100.00
8627;BME280;4351;51.422;6.794;2023-07-20T00:16:09;101219.84;;;18.26;100.00
8627;BME280;4351;51.422;6.794;2023-07-20T00:18:37;101218.09;;;18.25;100.00
8627;BME280;4351;51.422;6.794;2023-07-20T00:21:04;101218.38;;;18.22;100.00
8627;BME280;4351;51.422;6.794;2023-07-20T00:23:33;101216.38;;;18.24;100.00
8627;BME280;4351;51.422;6.794;2023-07-20T00:26:03;101212.53;;;18.15;100.00
8627;BME280;4351;51.422;6.794;2023-07-20T00:28:31;101207.69;;;18.19;100.00
8627;BME280;4351;51.422;6.794;2023-07-20T00:30:59;101213.91;;;18.21;100.00
8627;BME280;4351;51.422;6.794;2023-07-20T00:33:28;101210.56;;;18.18;100.00
8627;BME280;4351;51.422;6.794;2023-07-20T00:35:58;101207.44;;;18.22;100.00
8627;BME280;4351;51.422;6.794;2023-07-20T00:38:26;101208.19;;;18.13;100.00
8627;BME280;4351;51.422;6.794;2023-07-20T00:40:53;101199.03;;;18.14;100.00
8627;BME280;4351;51.422;6.794;2023-07-20T00:43:22;101201.75;;;18.14;100.00
8627;BME280;4351;51.422;6.794;2023-07-20T00:45:50;101200.53;;;18.18;100.00
8627;BME280;4351;51.422;6.794;2023-07-20T00:48:19;101196.53;;;18.22;100.00
8627;BME280;4351;51.422;6.794;2023-07-20T00:50:47;101196.38;;;18.24;100.00
8627;BME280;4351;51.422;6.794;2023-07-20T00:57:29;101204.75;;;18.11;100.00
8627;BME280;4351;51.422;6.794;2023-07-20T01:00:00;101209.06;;;18.13;100.00
8627;BME280;4351;51.422;6.794;2023-07-20T01:02:28;101216.31;;;18.03;100.00
8627;BME280;4351;51.422;6.794;2023-07-20T01:04:56;101197.97;;;18.05;100.00
8627;BME280;4351;51.422;6.794;2023-07-20T01:07:26;101196.34;;;18.02;100.00
8627;BME280;4351;51.422;6.794;2023-07-20T01:10:02;101204.25;;;18.06;100.00
8627;BME280;4351;51.422;6.794;2023-07-20T01:12:42;101197.97;;;18.05;100.00
8627;BME280;4351;51.422;6.794;2023-07-20T01:15:12;101205.75;;;18.10;100.00
8627;BME280;4351;51.422;6.794;2023-07-20T01:17:40;101201.81;;;18.02;100.00
8627;BME280;4351;51.422;6.794;2023-07-20T01:20:10;101206.00;;;18.18;100.00
8627;BME280;4351;51.422;6.794;2023-07-20T01:23:08;101200.75;;;18.15;100.00
8627;BME280;4351;51.422;6.794;2023-07-20T01:26:08;101195.75;;;18.32;100.00
8627;BME280;4351;51.422;6.794;2023-07-20T01:28:58;101207.75;;;18.08;100.00
8627;BME280;4351;51.422;6.794;2023-07-20T01:31:36;101199.66;;;18.06;100.00
8627;BME280;4351;51.422;6.794;2023-07-20T01:34:07;101208.06;;;18.14;100.00
8627;BME280;4351;51.422;6.794;2023-07-20T01:36:37;101195.09;;;18.07;100.00
8627;BME280;4351;51.422;6.794;2023-07-20T01:39:06;101189.44;;;17.98;100.00
8627;BME280;4351;51.422;6.794;2023-07-20T01:41:34;101170.13;;;17.90;100.00
8627;BME280;4351;51.422;6.794;2023-07-20T01:44:03;101154.25;;;17.84;100.00
8627;BME280;4351;51.422;6.794;2023-07-20T01:46:31;101144.66;;;17.68;100.00
8627;BME280;4351;51.422;6.794;2023-07-20T01:49:01;101115.69;;;17.55;100.00
8627;BME280;4351;51.422;6.794;2023-07-20T01:51:31;101083.69;;;17.57;100.00
8627;BME280;4351;51.422;6.794;2023-07-20T01:53:59;101044.22;;;17.40;100.00
8627;BME280;4351;51.422;6.794;2023-07-20T01:56:27;100993.53;;;17.38;100.00
8627;BME280;4351;51.422;6.794;2023-07-20T01:58:55;100979.81;;;17.39;100.00
8627;BME280;4351;51.422;6.794;2023-07-20T02:01:23;100975.81;;;17.22;100.00
8627;BME280;4351;51.422;6.794;2023-07-20T02:03:51;100948.41;;;17.23;100.00
8627;BME280;4351;51.422;6.794;2023-07-20T02:06:21;100926.31;;;17.27;100.00
8627;BME280;4351;51.422;6.794;2023-07-20T02:08:49;100906.66;;;17.23;100.00
8627;BME280;4351;51.422;6.794;2023-07-20T02:11:17;100882.91;;;17.14;100.00
8627;BME280;4351;51.422;6.794;2023-07-20T02:13:45;100842.13;;;17.12;100.00
8627;BME280;4351;51.422;6.794;2023-07-20T02:16:13;100816.25;;;17.18;100.00
8627;BME280;4351;51.422;6.794;2023-07-20T02:18:41;100820.47;;;17.10;100.00
8627;BME280;4351;51.422;6.794;2023-07-20T02:21:09;100823.34;;;17.09;100.00
8627;BME280;4351;51.422;6.794;2023-07-20T02:23:38;100830.78;;;17.07;100.00
8627;BME280;4351;51.422;6.794;2023-07-20T02:26:06;100847.00;;;17.08;100.00
8627;BME280;4351;51.422;6.794;2023-07-20T02:28:38;100867.78;;;17.09;100.00
8627;BME280;4351;51.422;6.794;2023-07-20T02:31:06;100903.50;;;17.06;100.00
8627;BME280;4351;51.422;6.794;2023-07-20T02:33:34;100959.31;;;17.12;100.00
8627;BME280;4351;51.422;6.794;2023-07-20T02:36:02;100996.59;;;17.11;100.00
8627;BME280;4351;51.422;6.794;2023-07-20T02:38:30;101024.72;;;17.12;100.00
8627;BME280;4351;51.422;6.794;2023-07-20T02:40:59;101042.47;;;17.06;100.00
8627;BME280;4351;51.422;6.794;2023-07-20T02:43:27;101057.44;;;17.12;100.00
8627;BME280;4351;51.422;6.794;2023-07-20T02:45:55;101078.38;;;17.11;100.00
8627;BME280;4351;51.422;6.794;2023-07-20T02:48:23;101103.44;;;17.17;100.00
8627;BME280;4351;51.422;6.794;2023-07-20T02:50:51;101131.16;;;17.10;100.00
8627;BME280;4351;51.422;6.794;2023-07-20T02:53:19;101135.66;;;17.00;100.00
8627;BME280;4351;51.422;6.794;2023-07-20T02:55:47;101147.16;;;17.15;100.00
8627;BME280;4351;51.422;6.794;2023-07-20T02:58:16;101166.00;;;17.07;100.00
8627;BME280;4351;51.422;6.794;2023-07-20T03:00:44;101146.78;;;16.97;100.00
8627;BME280;4351;51.422;6.794;2023-07-20T03:03:12;101153.47;;;16.93;100.00
8627;BME280;4351;51.422;6.794;2023-07-20T03:05:40;101127.84;;;16.95;100.00
8627;BME280;4351;51.422;6.794;2023-07-20T03:08:08;101126.22;;;17.04;100.00
8627;BME280;4351;51.422;6.794;2023-07-20T03:10:40;101118.94;;;16.93;100.00
8627;BME280;4351;51.422;6.794;2023-07-20T03:13:08;101112.09;;;16.99;100.00
8627;BME280;4351;51.422;6.794;2023-07-20T03:15:37;101118.16;;;17.03;100.00
8627;BME280;4351;51.422;6.794;2023-07-20T03:18:05;101116.94;;;16.95;100.00
8627;BME280;4351;51.422;6.794;2023-07-20T03:20:35;101118.06;;;16.93;100.00
8627;BME280;4351;51.422;6.794;2023-07-20T03:23:04;101132.91;;;17.00;100.00
8627;BME280;4351;51.422;6.794;2023-07-20T03:25:32;101136.13;;;16.94;100.00
8627;BME280;4351;51.422;6.794;2023-07-20T03:28:00;101142.81;;;16.89;100.00
8627;BME280;4351;51.422;6.794;2023-07-20T03:30:28;101158.31;;;16.89;100.00
8627;BME280;4351;51.422;6.794;2023-07-20T03:32:57;101189.13;;;16.89;100.00
8627;BME280;4351;51.422;6.794;2023-07-20T03:35:25;101224.19;;;16.94;100.00
8627;BME280;4351;51.422;6.794;2023-07-20T03:37:53;101220.13;;;16.88;100.00
8627;BME280;4351;51.422;6.794;2023-07-20T03:40:21;101230.75;;;16.92;100.00
8627;BME280;4351;51.422;6.794;2023-07-20T03:42:49;101235.84;;;16.85;100.00
8627;BME280;4351;51.422;6.794;2023-07-20T03:45:17;101256.50;;;16.87;100.00
8627;BME280;4351;51.422;6.794;2023-07-20T03:47:46;101290.78;;;16.78;100.00
8627;BME280;4351;51.422;6.794;2023-07-20T03:50:16;101332.56;;;16.91;100.00
8627;BME280;4351;51.422;6.794;2023-07-20T03:52:44;101396.47;;;16.86;100.00
8627;BME280;4351;51.422;6.794;2023-07-20T03:55:12;101394.44;;;16.77;100.00
8627;BME280;4351;51.422;6.794;2023-07-20T03:57:40;101415.25;;;16.78;100.00
8627;BME280;4351;51.422;6.794;2023-07-20T04:00:09;101429.63;;;16.80;100.00
8627;BME280;4351;51.422;6.794;2023-07-20T04:02:38;101470.16;;;16.85;100.00
8627;BME280;4351;51.422;6.794;2023-07-20T04:05:07;101490.31;;;16.82;100.00
8627;BME280;4351;51.422;6.794;2023-07-20T04:07:36;101541.00;;;16.85;100.00
8627;BME280;4351;51.422;6.794;2023-07-20T04:10:05;101574.31;;;16.88;100.00
8627;BME280;4351;51.422;6.794;2023-07-20T04:12:35;101583.94;;;16.81;100.00
8627;BME280;4351;51.422;6.794;2023-07-20T04:15:04;101582.66;;;16.74;100.00
8627;BME280;4351;51.422;6.794;2023-07-20T04:17:32;101586.66;;;16.81;100.00
8627;BME280;4351;51.422;6.794;2023-07-20T04:20:00;101577.84;;;16.77;100.00
8627;BME280;4351;51.422;6.794;2023-07-20T04:22:29;101569.34;;;16.82;100.00
8627;BME280;4351;51.422;6.794;2023-07-20T04:24:58;101580.81;;;16.99;100.00
8627;BME280;4351;51.422;6.794;2023-07-20T04:27:26;101547.53;;;16.82;100.00
8627;BME280;4351;51.422;6.794;2023-07-20T04:29:54;101567.38;;;16.84;100.00
8627;BME280;4351;51.422;6.794;2023-07-20T04:32:22;101545.44;;;16.86;100.00
8627;BME280;4351;51.422;6.794;2023-07-20T04:34:51;101547.53;;;16.82;100.00
8627;BME280;4351;51.422;6.794;2023-07-20T04:37:19;101561.78;;;16.86;100.00
8627;BME280;4351;51.422;6.794;2023-07-20T04:39:48;101590.25;;;16.82;100.00
8627;BME280;4351;51.422;6.794;2023-07-20T04:42:17;101587.41;;;16.83;100.00
8627;BME280;4351;51.422;6.794;2023-07-20T04:44:47;101619.00;;;16.86;100.00
8627;BME280;4351;51.422;6.794;2023-07-20T04:47:15;101676.53;;;16.94;100.00
8627;BME280;4351;51.422;6.794;2023-07-20T04:49:43;101706.84;;;16.89;100.00
8627;BME280;4351;51.422;6.794;2023-07-20T04:52:11;101741.06;;;16.94;100.00
8627;BME280;4351;51.422;6.794;2023-07-20T04:54:39;101764.84;;;16.92;100.00
8627;BME280;4351;51.422;6.794;2023-07-20T04:57:10;101765.06;;;16.88;100.00
8627;BME280;4351;51.422;6.794;2023-07-20T04:59:44;101788.84;;;16.86;100.00
8627;BME280;4351;51.422;6.794;2023-07-20T05:02:12;101840.94;;;16.95;100.00
8627;BME280;4351;51.422;6.794;2023-07-20T05:04:40;101828.19;;;16.82;100.00
8627;BME280;4351;51.422;6.794;2023-07-20T05:07:08;101838.75;;;16.87;100.00
8627;BME280;4351;51.422;6.794;2023-07-20T05:09:36;101854.00;;;16.89;100.00
8627;BME280;4351;51.422;6.794;2023-07-20T05:12:04;101834.41;;;16.84;100.00
8627;BME280;4351;51.422;6.794;2023-07-20T05:14:32;101834.16;;;16.87;100.00
8627;BME280;4351;51.422;6.794;2023-07-20T05:17:01;101820.00;;;16.82;100.00
8627;BME280;4351;51.422;6.794;2023-07-20T05:19:29;101792.00;;;16.80;100.00
8627;BME280;4351;51.422;6.794;2023-07-20T05:21:57;101797.97;;;16.85;100.00
8627;BME280;4351;51.422;6.794;2023-07-20T05:24:25;101796.34;;;16.83;100.00
8627;BME280;4351;51.422;6.794;2023-07-20T05:26:53;101765.41;;;16.84;100.00
8627;BME280;4351;51.422;6.794;2023-07-20T05:29:21;101705.31;;;16.85;100.00
8627;BME280;4351;51.422;6.794;2023-07-20T05:31:49;101692.25;;;16.91;100.00
8627;BME280;4351;51.422;6.794;2023-07-20T05:34:18;101636.19;;;16.99;100.00
8627;BME280;4351;51.422;6.794;2023-07-20T05:36:47;101464.59;;;16.86;100.00
8627;BME280;4351;51.422;6.794;2023-07-20T05:39:16;101353.13;;;16.95;100.00
8627;BME280;4351;51.422;6.794;2023-07-20T05:41:44;101274.47;;;16.90;100.00
8627;BME280;4351;51.422;6.794;2023-07-20T05:44:12;101235.97;;;16.95;100.00
8627;BME280;4351;51.422;6.794;2023-07-20T05:46:40;101219.84;;;16.92;100.00
8627;BME280;4351;51.422;6.794;2023-07-20T05:49:24;101156.81;;;16.96;100.00
8627;BME280;4351;51.422;6.794;2023-07-20T05:51:52;101142.34;;;16.96;100.00
8627;BME280;4351;51.422;6.794;2023-07-20T05:54:20;101127.19;;;17.03;100.00
8627;BME280;4351;51.422;6.794;2023-07-20T05:56:48;101106.94;;;16.96;100.00
8627;BME280;4351;51.422;6.794;2023-07-20T05:59:16;101082.41;;;16.84;100.00
8627;BME280;4351;51.422;6.794;2023-07-20T06:01:44;101065.44;;;16.81;100.00
8627;BME280;4351;51.422;6.794;2023-07-20T06:04:12;101059.03;;;16.70;100.00
8627;BME280;4351;51.422;6.794;2023-07-20T06:06:41;101053.69;;;16.80;100.00
8627;BME280;4351;51.422;6.794;2023-07-20T06:09:09;101048.75;;;16.74;100.00
8627;BME280;4351;51.422;6.794;2023-07-20T06:11:38;101040.09;;;16.69;100.00
8627;BME280;4351;51.422;6.794;2023-07-20T06:14:06;101047.16;;;16.71;100.00
8627;BME280;4351;51.422;6.794;2023-07-20T06:16:34;101057.41;;;16.67;100.00
8627;BME280;4351;51.422;6.794;2023-07-20T06:19:02;101071.91;;;16.68;100.00
8627;BME280;4351;51.422;6.794;2023-07-20T06:21:30;101098.38;;;16.77;100.00
8627;BME280;4351;51.422;6.794;2023-07-20T06:23:59;101121.28;;;16.86;100.00
8627;BME280;4351;51.422;6.794;2023-07-20T06:26:27;101149.00;;;16.92;100.00
8627;BME280;4351;51.422;6.794;2023-07-20T06:28:56;101190.16;;;16.88;100.00
8627;BME280;4351;51.422;6.794;2023-07-20T06:31:25;101203.13;;;16.96;100.00
8627;BME280;4351;51.422;6.794;2023-07-20T06:33:53;101208.72;;;16.95;100.00
8627;BME280;4351;51.422;6.794;2023-07-20T06:36:24;101208.47;;;16.98;100.00
8627;BME280;4351;51.422;6.794;2023-07-20T06:38:52;101188.91;;;16.93;100.00
8627;BME280;4351;51.422;6.794;2023-07-20T06:41:25;101144.31;;;16.94;100.00
8627;BME280;4351;51.422;6.794;2023-07-20T06:43:55;101128.31;;;17.12;100.00
8627;BME280;4351;51.422;6.794;2023-07-20T06:46:25;101096.72;;;17.09;100.00
8627;BME280;4351;51.422;6.794;2023-07-20T06:48:54;101092.13;;;17.10;100.00
8627;BME280;4351;51.422;6.794;2023-07-20T06:51:25;101096.34;;;17.03;100.00
8627;BME280;4351;51.422;6.794;2023-07-20T06:53:53;101083.38;;;16.95;100.00
8627;BME280;4351;51.422;6.794;2023-07-20T06:56:20;101048.09;;;16.93;100.00
8627;BME280;4351;51.422;6.794;2023-07-20T06:58:53;101036.75;;;17.09;100.00
8627;BME280;4351;51.422;6.794;2023-07-20T07:01:21;101029.09;;;17.15;100.00
8627;BME280;4351;51.422;6.794;2023-07-20T07:03:50;101030.19;;;17.12;100.00
8627;BME280;4351;51.422;6.794;2023-07-20T07:06:21;101032.25;;;17.31;100.00
8627;BME280;4351;51.422;6.794;2023-07-20T07:08:50;101026.00;;;17.19;100.00
8627;BME280;4351;51.422;6.794;2023-07-20T07:11:18;101018.53;;;17.21;100.00
8627;BME280;4351;51.422;6.794;2023-07-20T07:13:47;101019.63;;;17.30;100.00
8627;BME280;4351;51.422;6.794;2023-07-20T07:16:18;101018.41;;;17.23;100.00
8627;BME280;4351;51.422;6.794;2023-07-20T07:18:47;101022.88;;;17.24;100.00
8627;BME280;4351;51.422;6.794;2023-07-20T07:21:15;101025.81;;;17.32;100.00
8627;BME280;4351;51.422;6.794;2023-07-20T07:23:43;101018.25;;;17.24;100.00
8627;BME280;4351;51.422;6.794;2023-07-20T07:26:11;101026.53;;;17.34;100.00
8627;BME280;4351;51.422;6.794;2023-07-20T07:28:39;101032.72;;;17.37;100.00
8627;BME280;4351;51.422;6.794;2023-07-20T07:31:07;101030.47;;;17.42;100.00
8627;BME280;4351;51.422;6.794;2023-07-20T07:33:36;101028.78;;;17.29;100.00
8627;BME280;4351;51.422;6.794;2023-07-20T07:36:05;101039.16;;;17.35;100.00
8627;BME280;4351;51.422;6.794;2023-07-20T07:38:33;101053.31;;;17.29;100.00
8627;BME280;4351;51.422;6.794;2023-07-20T07:41:20;101073.50;;;17.38;100.00
8627;BME280;4351;51.422;6.794;2023-07-20T07:43:49;101081.81;;;17.37;100.00
8627;BME280;4351;51.422;6.794;2023-07-20T07:46:17;101088.50;;;17.32;100.00
8627;BME280;4351;51.422;6.794;2023-07-20T07:48:46;101097.63;;;17.43;100.00
8627;BME280;4351;51.422;6.794;2023-07-20T07:51:14;101106.56;;;17.45;100.00
8627;BME280;4351;51.422;6.794;2023-07-20T07:53:42;101115.22;;;17.50;100.00
8627;BME280;4351;51.422;6.794;2023-07-20T07:56:10;101131.09;;;17.45;100.00
8627;BME280;4351;51.422;6.794;2023-07-20T07:58:38;101152.28;;;17.53;100.00
8627;BME280;4351;51.422;6.794;2023-07-20T08:01:07;101168.28;;;17.46;100.00
8627;BME280;4351;51.422;6.794;2023-07-20T08:03:35;101171.41;;;17.74;100.00
8627;BME280;4351;51.422;6.794;2023-07-20T08:06:05;101196.66;;;17.55;100.00
8627;BME280;4351;51.422;6.794;2023-07-20T08:08:33;101217.63;;;17.43;100.00
8627;BME280;4351;51.422;6.794;2023-07-20T08:11:03;101244.50;;;17.48;100.00
8627;BME280;4351;51.422;6.794;2023-07-20T08:13:33;101251.06;;;17.56;100.00
8627;BME280;4351;51.422;6.794;2023-07-20T08:16:01;101255.66;;;17.56;100.00
8627;BME280;4351;51.422;6.794;2023-07-20T08:18:30;101267.41;;;17.68;100.00
8627;BME280;4351;51.422;6.794;2023-07-20T08:20:58;101277.81;;;17.86;100.00
8627;BME280;4351;51.422;6.794;2023-07-20T08:23:27;101311.50;;;17.96;100.00
8627;BME280;4351;51.422;6.794;2023-07-20T08:25:55;101329.31;;;18.23;100.00
8627;BME280;4351;51.422;6.794;2023-07-20T08:28:23;101330.31;;;18.22;100.00
8627;BME280;4351;51.422;6.794;2023-07-20T08:30:53;101331.97;;;18.68;100.00
8627;BME280;4351;51.422;6.794;2023-07-20T08:33:21;101352.59;;;18.39;100.00
8627;BME280;4351;51.422;6.794;2023-07-20T08:35:50;101355.13;;;18.19;100.00
8627;BME280;4351;51.422;6.794;2023-07-20T08:38:18;101364.19;;;18.08;100.00
8627;BME280;4351;51.422;6.794;2023-07-20T08:40:47;101370.00;;;18.15;100.00
8627;BME280;4351;51.422;6.794;2023-07-20T08:43:15;101371.72;;;18.27;100.00
8627;BME280;4351;51.422;6.794;2023-07-20T08:45:46;101385.31;;;18.50;100.00
8627;BME280;4351;51.422;6.794;2023-07-20T08:48:17;101395.94;;;18.65;100.00
8627;BME280;4351;51.422;6.794;2023-07-20T08:50:47;101399.53;;;18.66;100.00
8627;BME280;4351;51.422;6.794;2023-07-20T08:53:17;101398.94;;;18.62;100.00
8627;BME280;4351;51.422;6.794;2023-07-20T08:55:46;101405.88;;;18.66;100.00
8627;BME280;4351;51.422;6.794;2023-07-20T08:58:16;101406.13;;;18.63;100.00
8627;BME280;4351;51.422;6.794;2023-07-20T09:00:45;101407.34;;;18.70;100.00
8627;BME280;4351;51.422;6.794;2023-07-20T09:03:14;101410.44;;;18.77;100.00
8627;BME280;4351;51.422;6.794;2023-07-20T09:05:42;101402.66;;;19.15;100.00
8627;BME280;4351;51.422;6.794;2023-07-20T09:08:10;101408.19;;;19.04;100.00
8627;BME280;4351;51.422;6.794;2023-07-20T09:10:38;101413.72;;;18.92;100.00
8627;BME280;4351;51.422;6.794;2023-07-20T09:13:07;101420.34;;;18.78;100.00
8627;BME280;4351;51.422;6.794;2023-07-20T09:15:36;101422.34;;;18.76;100.00
8627;BME280;4351;51.422;6.794;2023-07-20T09:18:04;101428.13;;;18.61;100.00
8627;BME280;4351;51.422;6.794;2023-07-20T09:20:32;101432.50;;;18.53;100.00
8627;BME280;4351;51.422;6.794;2023-07-20T09:23:04;101432.00;;;18.47;100.00
8627;BME280;4351;51.422;6.794;2023-07-20T09:25:33;101431.72;;;18.62;100.00
8627;BME280;4351;51.422;6.794;2023-07-20T09:28:03;101425.25;;;18.63;100.00
8627;BME280;4351;51.422;6.794;2023-07-20T09:30:33;101429.69;;;18.76;100.00
8627;BME280;4351;51.422;6.794;2023-07-20T09:33:01;101432.09;;;18.90;100.00
8627;BME280;4351;51.422;6.794;2023-07-20T09:35:29;101429.25;;;19.13;100.00
8627;BME280;4351;51.422;6.794;2023-07-20T09:38:08;101424.22;;;19.30;100.00
8627;BME280;4351;51.422;6.794;2023-07-20T09:40:39;101429.94;;;19.27;100.00
8627;BME280;4351;51.422;6.794;2023-07-20T09:43:10;101424.44;;;19.17;100.00
8627;BME280;4351;51.422;6.794;2023-07-20T09:45:43;101430.97;;;18.93;100.00
8627;BME280;4351;51.422;6.794;2023-07-20T09:48:15;101427.78;;;19.09;100.00
8627;BME280;4351;51.422;6.794;2023-07-20T09:50:49;101431.97;;;19.13;100.00
8627;BME280;4351;51.422;6.794;2023-07-20T09:53:18;101422.75;;;19.26;100.00
8627;BME280;4351;51.422;6.794;2023-07-20T09:55:47;101421.41;;;19.41;100.00
8627;BME280;4351;51.422;6.794;2023-07-20T09:58:16;101413.72;;;19.57;100.00
8627;BME280;4351;51.422;6.794;2023-07-20T10:00:46;101423.47;;;19.28;100.00
8627;BME280;4351;51.422;6.794;2023-07-20T10:03:20;101413.25;;;19.51;100.00
8627;BME280;4351;51.422;6.794;2023-07-20T10:05:52;101420.13;;;19.46;100.00
8627;BME280;4351;51.422;6.794;2023-07-20T10:08:24;101417.38;;;19.77;100.00
8627;BME280;4351;51.422;6.794;2023-07-20T10:10:57;101423.78;;;19.56;100.00
8627;BME280;4351;51.422;6.794;2023-07-20T10:13:28;101424.34;;;19.50;100.00
8627;BME280;4351;51.422;6.794;2023-07-20T10:16:02;101429.41;;;19.33;100.00
8627;BME280;4351;51.422;6.794;2023-07-20T10:18:34;101424.88;;;19.44;100.00
8627;BME280;4351;51.422;6.794;2023-07-20T10:21:06;101429.50;;;19.53;100.00
8627;BME280;4351;51.422;6.794;2023-07-20T10:23:39;101421.28;;;19.74;100.00
8627;BME280;4351;51.422;6.794;2023-07-20T10:26:07;101413.56;;;19.90;100.00
8627;BME280;4351;51.422;6.794;2023-07-20T10:28:36;101419.78;;;19.70;100.00
8627;BME280;4351;51.422;6.794;2023-07-20T10:31:07;101419.16;;;19.88;100.00
8627;BME280;4351;51.422;6.794;2023-07-20T10:33:36;101418.25;;;19.78;100.00
8627;BME280;4351;51.422;6.794;2023-07-20T10:36:06;101413.72;;;19.98;100.00
8627;BME280;4351;51.422;6.794;2023-07-20T10:38:41;101412.94;;;19.86;100.00
8627;BME280;4351;51.422;6.794;2023-07-20T10:41:18;101415.63;;;20.07;100.00
8627;BME280;4351;51.422;6.794;2023-07-20T10:43:47;101411.63;;;20.12;100.00
8627;BME280;4351;51.422;6.794;2023-07-20T10:46:35;101405.00;;;20.14;100.00
8627;BME280;4351;51.422;6.794;2023-07-20T10:49:10;101406.41;;;20.08;100.00
8627;BME280;4351;51.422;6.794;2023-07-20T10:51:39;101408.75;;;20.13;100.00
8627;BME280;4351;51.422;6.794;2023-07-20T10:54:08;101410.16;;;20.07;100.00
8627;BME280;4351;51.422;6.794;2023-07-20T10:56:37;101400.13;;;20.18;100.00
8627;BME280;4351;51.422;6.794;2023-07-20T10:59:17;101399.88;;;20.61;100.00
8627;BME280;4351;51.422;6.794;2023-07-20T11:01:47;101395.53;;;20.48;100.00
8627;BME280;4351;51.422;6.794;2023-07-20T11:04:17;101397.53;;;20.26;100.00
8627;BME280;4351;51.422;6.794;2023-07-20T11:06:46;101388.91;;;20.31;100.00
8627;BME280;4351;51.422;6.794;2023-07-20T11:09:14;101385.00;;;20.33;100.00
8627;BME280;4351;51.422;6.794;2023-07-20T11:11:43;101384.84;;;20.45;100.00
8627;BME280;4351;51.422;6.794;2023-07-20T11:14:20;101391.75;;;20.09;100.00
8627;BME280;4351;51.422;6.794;2023-07-20T11:16:51;101394.00;;;20.04;100.00
8627;BME280;4351;51.422;6.794;2023-07-20T11:19:22;101385.69;;;20.26;100.00
8627;BME280;4351;51.422;6.794;2023-07-20T11:21:54;101380.38;;;20.34;100.00
8627;BME280;4351;51.422;6.794;2023-07-20T11:24:29;101382.56;;;20.50;100.00
8627;BME280;4351;51.422;6.794;2023-07-20T11:26:57;101372.75;;;20.58;100.00
8627;BME280;4351;51.422;6.794;2023-07-20T11:29:26;101362.34;;;20.81;100.00
8627;BME280;4351;51.422;6.794;2023-07-20T11:32:02;101365.22;;;21.09;100.00
8627;BME280;4351;51.422;6.794;2023-07-20T11:34:33;101362.72;;;21.26;100.00
8627;BME280;4351;51.422;6.794;2023-07-20T11:37:01;101368.13;;;21.08;100.00
8627;BME280;4351;51.422;6.794;2023-07-20T11:39:33;101375.63;;;21.06;100.00
8627;BME280;4351;51.422;6.794;2023-07-20T11:42:03;101371.47;;;21.01;100.00
8627;BME280;4351;51.422;6.794;2023-07-20T11:44:30;101376.50;;;20.86;100.00
8627;BME280;4351;51.422;6.794;2023-07-20T11:47:01;101366.66;;;20.94;100.00
8627;BME280;4351;51.422;6.794;2023-07-20T11:49:34;101356.88;;;21.01;100.00
8627;BME280;4351;51.422;6.794;2023-07-20T11:52:04;101364.06;;;20.82;100.00
8627;BME280;4351;51.422;6.794;2023-07-20T11:54:32;101359.03;;;20.87;100.00
8627;BME280;4351;51.422;6.794;2023-07-20T11:57:01;101362.03;;;21.14;100.00
8627;BME280;4351;51.422;6.794;2023-07-20T11:59:30;101355.41;;;20.87;100.00
8627;BME280;4351;51.422;6.794;2023-07-20T12:01:58;101357.59;;;20.73;100.00
8627;BME280;4351;51.422;6.794;2023-07-20T12:04:30;101347.94;;;20.79;100.00
8627;BME280;4351;51.422;6.794;2023-07-20T12:06:59;101347.66;;;20.72;100.00
8627;BME280;4351;51.422;6.794;2023-07-20T12:09:27;101343.00;;;20.83;100.00
8627;BME280;4351;51.422;6.794;2023-07-20T12:12:09;101345.91;;;20.81;100.00
8627;BME280;4351;51.422;6.794;2023-07-20T12:14:39;101349.97;;;20.77;100.00
8627;BME280;4351;51.422;6.794;2023-07-20T12:17:08;101347.34;;;20.85;100.00
8627;BME280;4351;51.422;6.794;2023-07-20T12:19:39;101344.31;;;20.88;100.00
8627;BME280;4351;51.422;6.794;2023-07-20T12:22:07;101355.72;;;21.04;100.00
8627;BME280;4351;51.422;6.794;2023-07-20T12:24:35;101358.03;;;20.78;100.00
8627;BME280;4351;51.422;6.794;2023-07-20T12:27:04;101348.50;;;20.83;100.00
8627;BME280;4351;51.422;6.794;2023-07-20T12:29:32;101346.03;;;21.09;100.00
8627;BME280;4351;51.422;6.794;2023-07-20T12:32:03;101353.69;;;20.76;100.00
8627;BME280;4351;51.422;6.794;2023-07-20T12:34:31;101350.81;;;20.77;100.00
8627;BME280;4351;51.422;6.794;2023-07-20T12:37:03;101346.56;;;21.23;100.00
8627;BME280;4351;51.422;6.794;2023-07-20T12:39:31;101345.09;;;21.29;100.00
8627;BME280;4351;51.422;6.794;2023-07-20T12:41:59;101344.50;;;21.35;100.00
8627;BME280;4351;51.422;6.794;2023-07-20T12:44:27;101349.47;;;21.21;100.00
8627;BME280;4351;51.422;6.794;2023-07-20T12:46:55;101331.03;;;21.42;100.00
8627;BME280;4351;51.422;6.794;2023-07-20T12:49:24;101338.00;;;21.64;100.00
8627;BME280;4351;51.422;6.794;2023-07-20T12:51:54;101333.78;;;21.70;100.00
8627;BME280;4351;51.422;6.794;2023-07-20T12:54:23;101339.63;;;21.57;100.00
8627;BME280;4351;51.422;6.794;2023-07-20T12:56:52;101342.16;;;21.40;100.00
8627;BME280;4351;51.422;6.794;2023-07-20T12:59:26;101344.63;;;21.43;100.00
8627;BME280;4351;51.422;6.794;2023-07-20T13:01:54;101341.66;;;21.55;100.00
8627;BME280;4351;51.422;6.794;2023-07-20T13:04:22;101332.44;;;21.56;100.00
8627;BME280;4351;51.422;6.794;2023-07-20T13:06:52;101339.00;;;21.63;100.00
8627;BME280;4351;51.422;6.794;2023-07-20T13:09:20;101336.69;;;21.68;100.00
8627;BME280;4351;51.422;6.794;2023-07-20T13:11:50;101333.34;;;21.46;100.00
8627;BME280;4351;51.422;6.794;2023-07-20T13:14:18;101330.75;;;21.45;100.00
8627;BME280;4351;51.422;6.794;2023-07-20T13:16:47;101321.97;;;21.69;100.00
8627;BME280;4351;51.422;6.794;2023-07-20T13:19:15;101300.31;;;22.31;100.00
8627;BME280;4351;51.422;6.794;2023-07-20T13:21:43;101284.91;;;22.38;100.00
8627;BME280;4351;51.422;6.794;2023-07-20T13:24:17;101298.59;;;22.30;100.00